createdAt,value
2019-04-04T00:00:27.274Z,6.61
2019-04-04T00:02:56.114Z,6.58
2019-04-04T00:05:26.148Z,6.57
2019-04-04T00:07:55.217Z,6.62
2019-04-04T00:10:24.148Z,6.58
2019-04-04T00:12:53.070Z,6.53
2019-04-04T00:15:22.042Z,6.16
2019-04-04T00:17:51.829Z,6.41
2019-04-04T00:20:21.585Z,6.37
2019-04-04T00:22:50.443Z,6.33
2019-04-04T00:25:19.392Z,6.35
2019-04-04T00:27:48.235Z,6.27
2019-04-04T00:30:18.002Z,6.26
2019-04-04T00:32:47.072Z,6.24
2019-04-04T00:35:15.901Z,6.27
2019-04-04T00:37:44.735Z,6.29
2019-04-04T00:40:13.661Z,6.21
2019-04-04T00:42:42.517Z,6.25
2019-04-04T00:45:13.548Z,6.26
2019-04-04T00:47:42.166Z,6.29
2019-04-04T00:50:10.933Z,6.19
2019-04-04T00:52:41.405Z,6.14
2019-04-04T00:55:10.122Z,6.16
2019-04-04T00:57:38.795Z,6.09
2019-04-04T01:00:08.841Z,6.02
2019-04-04T01:02:37.496Z,5.99
2019-04-04T01:05:07.095Z,5.96
2019-04-04T01:07:36.381Z,5.95
2019-04-04T01:10:07.611Z,5.86
2019-04-04T01:12:36.281Z,5.79
2019-04-04T01:15:06.283Z,5.75
2019-04-04T01:17:35.749Z,5.66
2019-04-04T01:20:09.512Z,5.61
2019-04-04T01:22:38.173Z,5.58
2019-04-04T01:25:08.426Z,5.45
2019-04-04T01:27:37.657Z,5.48
2019-04-04T01:30:11.894Z,5.44
2019-04-04T01:32:38.965Z,5.38
2019-04-04T01:35:08.583Z,5.32
2019-04-04T01:37:37.250Z,5.30
2019-04-04T01:40:06.540Z,5.24
2019-04-04T01:42:37.796Z,5.15
2019-04-04T01:45:08.816Z,5.14
2019-04-04T01:47:37.489Z,5.06
2019-04-04T01:50:06.855Z,5.00
2019-04-04T01:52:35.535Z,4.94
2019-04-04T01:55:05.217Z,4.88
2019-04-04T01:57:33.893Z,4.84
2019-04-04T02:00:02.557Z,4.86
2019-04-04T02:02:31.247Z,4.82
2019-04-04T02:04:59.920Z,4.45
2019-04-04T02:07:29.856Z,4.74
2019-04-04T02:09:59.039Z,4.76
2019-04-04T02:12:27.733Z,4.76
2019-04-04T02:14:56.383Z,4.71
2019-04-04T02:17:25.102Z,4.71
2019-04-04T02:19:55.846Z,4.72
2019-04-04T02:22:24.344Z,4.68
2019-04-04T02:24:53.212Z,4.70
2019-04-04T02:27:21.859Z,4.69
2019-04-04T02:29:50.534Z,4.70
2019-04-04T02:32:20.761Z,4.68
2019-04-04T02:34:49.444Z,4.66
2019-04-04T02:37:20.639Z,4.68
2019-04-04T02:39:48.578Z,4.62
2019-04-04T02:42:21.064Z,4.59
2019-04-04T02:44:47.647Z,4.57
2019-04-04T02:47:17.495Z,4.55
2019-04-04T02:49:46.901Z,4.55
2019-04-04T02:52:15.654Z,4.54
2019-04-04T02:54:44.359Z,4.54
2019-04-04T02:57:13.043Z,4.54
2019-04-04T02:59:41.813Z,4.54
2019-04-04T03:02:10.495Z,4.50
2019-04-04T03:04:39.154Z,4.47
2019-04-04T03:07:07.831Z,4.52
2019-04-04T03:09:36.519Z,4.54
2019-04-04T03:12:05.186Z,4.57
2019-04-04T03:14:37.283Z,4.61
2019-04-04T03:17:04.260Z,4.60
2019-04-04T03:19:32.935Z,4.59
2019-04-04T03:22:01.639Z,4.62
2019-04-04T03:24:30.293Z,4.62
2019-04-04T03:26:58.963Z,4.59
2019-04-04T03:29:27.644Z,4.66
2019-04-04T03:31:56.345Z,4.68
2019-04-04T03:34:25.043Z,4.69
2019-04-04T03:36:53.704Z,4.69
2019-04-04T03:39:22.358Z,4.68
2019-04-04T03:41:51.049Z,4.74
2019-04-04T03:44:20.645Z,4.70
2019-04-04T03:46:49.375Z,4.69
2019-04-04T03:49:18.039Z,4.65
2019-04-04T03:51:46.720Z,4.68
2019-04-04T03:54:16.948Z,4.66
2019-04-04T03:56:45.616Z,4.67
2019-04-04T03:59:14.278Z,4.66
2019-04-04T04:01:46.473Z,4.70
2019-04-04T04:04:13.351Z,4.65
2019-04-04T04:06:43.108Z,4.52
2019-04-04T04:09:12.139Z,4.64
2019-04-04T04:11:40.811Z,4.66
2019-04-04T04:14:09.497Z,4.64
2019-04-04T04:16:38.201Z,4.72
2019-04-04T04:19:06.893Z,4.82
2019-04-04T04:21:35.570Z,4.84
2019-04-04T04:24:04.261Z,4.85
2019-04-04T04:26:33.006Z,4.96
2019-04-04T04:29:01.782Z,5.03
2019-04-04T04:31:30.474Z,5.11
2019-04-04T04:34:01.690Z,5.15
2019-04-04T04:36:29.605Z,5.26
2019-04-04T04:38:59.927Z,5.28
2019-04-04T04:41:28.746Z,5.37
2019-04-04T04:43:57.421Z,5.40
2019-04-04T04:46:26.103Z,5.44
2019-04-04T04:48:54.803Z,5.49
2019-04-04T04:51:23.477Z,5.54
2019-04-04T04:53:52.146Z,5.57
2019-04-04T04:56:20.831Z,5.44
2019-04-04T04:58:49.542Z,5.58
2019-04-04T05:01:19.023Z,5.63
2019-04-04T05:03:50.626Z,5.81
2019-04-04T05:06:18.282Z,5.90
2019-04-04T05:08:46.956Z,6.12
2019-04-04T05:11:18.655Z,6.26
2019-04-04T05:13:46.030Z,6.45
2019-04-04T05:16:14.711Z,6.69
2019-04-04T05:18:43.397Z,6.85
2019-04-04T05:21:24.120Z,6.95
2019-04-04T05:23:42.510Z,7.10
2019-04-04T05:26:11.220Z,7.14
2019-04-04T05:28:41.837Z,7.28
2019-04-04T05:31:10.286Z,7.32
2019-04-04T05:33:38.944Z,7.24
2019-04-04T05:36:07.617Z,7.31
2019-04-04T05:38:36.301Z,7.19
2019-04-04T05:41:05.283Z,7.14
2019-04-04T05:43:35.272Z,7.31
2019-04-04T05:46:04.556Z,7.51
2019-04-04T05:48:33.251Z,7.69
2019-04-04T05:51:02.062Z,7.85
2019-04-04T05:53:30.921Z,7.83
2019-04-04T05:55:59.771Z,7.87
2019-04-04T05:58:28.547Z,8.16
2019-04-04T06:00:57.810Z,8.43
2019-04-04T06:03:27.256Z,8.45
2019-04-04T06:06:01.192Z,8.76
2019-04-04T06:08:42.438Z,9.08
2019-04-04T06:11:07.867Z,9.24
2019-04-04T06:13:36.681Z,9.40
2019-04-04T06:16:05.419Z,9.48
2019-04-04T06:18:34.132Z,9.70
2019-04-04T06:21:02.910Z,9.88
2019-04-04T06:23:31.618Z,9.34
2019-04-04T06:26:00.469Z,10.02
2019-04-04T06:28:29.235Z,10.38
2019-04-04T06:31:00.738Z,10.41
2019-04-04T06:33:30.055Z,10.81
2019-04-04T06:35:58.754Z,10.94
2019-04-04T06:38:27.481Z,11.35
2019-04-04T06:40:56.348Z,11.77
2019-04-04T06:43:28.942Z,12.64
2019-04-04T06:45:57.628Z,12.98
2019-04-04T06:48:27.215Z,13.49
2019-04-04T06:50:56.794Z,14.63
2019-04-04T06:53:25.479Z,15.23
2019-04-04T06:55:55.289Z,15.26
2019-04-04T06:58:24.085Z,15.72
2019-04-04T07:00:52.761Z,14.69
2019-04-04T07:03:21.439Z,12.93
2019-04-04T07:05:50.170Z,12.53
2019-04-04T07:08:18.886Z,12.21
2019-04-04T07:10:57.474Z,11.90
2019-04-04T07:13:21.969Z,11.57
2019-04-04T07:16:05.679Z,12.15
2019-04-04T07:18:19.007Z,12.64
2019-04-04T07:20:48.398Z,12.19
2019-04-04T07:23:17.598Z,11.76
2019-04-04T07:25:46.331Z,12.53
2019-04-04T07:28:18.681Z,12.37
2019-04-04T07:30:45.666Z,12.91
2019-04-04T07:33:14.574Z,13.03
2019-04-04T07:35:43.273Z,13.53
2019-04-04T07:38:11.994Z,13.68
2019-04-04T07:40:40.743Z,13.50
2019-04-04T07:43:09.811Z,12.84
2019-04-04T07:45:38.515Z,12.69
2019-04-04T07:48:07.192Z,12.10
2019-04-04T07:50:35.907Z,12.10
2019-04-04T07:53:07.622Z,12.26
2019-04-04T07:55:36.396Z,12.54
2019-04-04T07:58:05.090Z,12.95
2019-04-04T08:00:33.775Z,12.70
2019-04-04T08:03:02.560Z,12.86
2019-04-04T08:05:31.355Z,13.00
2019-04-04T08:08:00.136Z,13.41
2019-04-04T08:10:28.818Z,13.67
2019-04-04T08:12:57.711Z,13.70
2019-04-04T08:15:26.677Z,13.63
2019-04-04T08:17:55.571Z,13.90
2019-04-04T08:20:24.417Z,13.85
2019-04-04T08:22:53.096Z,13.78
2019-04-04T08:25:22.068Z,14.33
2019-04-04T08:27:50.781Z,14.08
2019-04-04T08:30:19.506Z,14.69
2019-04-04T08:32:48.461Z,15.31
2019-04-04T08:35:17.155Z,14.86
2019-04-04T08:37:46.077Z,15.08
2019-04-04T08:40:14.911Z,13.98
2019-04-04T08:42:43.692Z,14.36
2019-04-04T08:45:13.138Z,15.01
2019-04-04T08:47:41.814Z,16.06
2019-04-04T08:50:10.819Z,17.14
2019-04-04T08:52:39.743Z,17.19
2019-04-04T08:55:08.735Z,16.47
2019-04-04T08:57:37.570Z,16.67
2019-04-04T09:00:08.841Z,17.07
2019-04-04T09:02:37.686Z,17.69
2019-04-04T09:05:12.203Z,17.36
2019-04-04T09:07:40.079Z,17.92
2019-04-04T09:10:10.153Z,18.83
2019-04-04T09:12:38.837Z,19.49
2019-04-04T09:15:08.547Z,20.95
2019-04-04T09:17:37.209Z,21.44
2019-04-04T09:20:09.458Z,21.67
2019-04-04T09:22:40.919Z,22.42
2019-04-04T09:25:10.599Z,23.26
2019-04-04T09:27:39.839Z,24.18
2019-04-04T09:30:10.554Z,24.02
2019-04-04T09:32:39.395Z,22.78
2019-04-04T09:35:08.885Z,23.01
2019-04-04T09:37:37.591Z,22.54
2019-04-04T09:40:07.738Z,21.71
2019-04-04T09:42:36.530Z,21.53
2019-04-04T09:45:07.720Z,20.95
2019-04-04T09:47:36.514Z,21.05
2019-04-04T09:50:06.583Z,22.47
2019-04-04T09:52:35.317Z,23.99
2019-04-04T09:55:05.563Z,25.02
2019-04-04T09:57:34.246Z,24.76
2019-04-04T10:00:04.490Z,26.18
2019-04-04T10:02:33.174Z,27.37
2019-04-04T10:05:01.907Z,26.41
2019-04-04T10:07:30.632Z,27.19
2019-04-04T10:09:59.468Z,28.78
2019-04-04T10:12:29.654Z,29.94
2019-04-04T10:14:58.757Z,30.01
2019-04-04T10:17:27.838Z,29.74
2019-04-04T10:19:56.536Z,30.25
2019-04-04T10:22:25.325Z,28.17
2019-04-04T10:24:54.078Z,28.33
2019-04-04T10:27:22.793Z,26.49
2019-04-04T10:29:51.499Z,25.44
2019-04-04T10:32:20.251Z,24.46
2019-04-04T10:34:49.270Z,23.04
2019-04-04T10:37:17.997Z,22.82
2019-04-04T10:39:47.597Z,20.45
2019-04-04T10:42:16.329Z,20.85
2019-04-04T10:44:45.214Z,21.34
2019-04-04T10:47:13.903Z,21.12
2019-04-04T10:49:42.908Z,20.63
2019-04-04T10:52:14.138Z,20.98
2019-04-04T10:54:43.216Z,19.97
2019-04-04T10:57:11.954Z,19.21
2019-04-04T10:59:40.623Z,20.47
2019-04-04T11:02:09.403Z,20.44
2019-04-04T11:04:38.267Z,23.37
2019-04-04T11:07:06.881Z,25.21
2019-04-04T11:09:42.236Z,24.66
2019-04-04T11:12:07.674Z,25.66
2019-04-04T11:14:36.360Z,25.80
2019-04-04T11:17:05.422Z,25.24
2019-04-04T11:19:34.173Z,26.63
2019-04-04T11:22:02.969Z,27.52
2019-04-04T11:24:31.880Z,28.01
2019-04-04T11:27:00.639Z,27.42
2019-04-04T11:29:29.320Z,28.65
2019-04-04T11:31:58.010Z,30.79
2019-04-04T11:34:26.695Z,30.63
2019-04-04T11:36:55.537Z,30.52
2019-04-04T11:39:24.234Z,30.84
2019-04-04T11:41:52.986Z,30.93
2019-04-04T11:44:21.670Z,31.91
2019-04-04T11:46:50.596Z,32.77
2019-04-04T11:49:19.283Z,33.69
2019-04-04T11:51:47.989Z,34.06
2019-04-04T11:54:17.496Z,34.13
2019-04-04T11:56:46.312Z,32.15
2019-04-04T11:59:15.223Z,31.96
2019-04-04T12:01:45.479Z,28.65
2019-04-04T12:04:14.399Z,30.09
2019-04-04T12:06:43.117Z,29.91
2019-04-04T12:09:12.020Z,27.62
2019-04-04T12:11:40.751Z,24.96
2019-04-04T12:14:09.516Z,23.49
2019-04-04T12:16:38.234Z,22.74
2019-04-04T12:19:07.001Z,21.95
2019-04-04T12:21:35.758Z,21.84
2019-04-04T12:24:04.652Z,21.36
2019-04-04T12:26:33.368Z,20.74
2019-04-04T12:29:02.413Z,20.56
2019-04-04T12:31:31.099Z,20.58
2019-04-04T12:34:02.092Z,19.99
2019-04-04T12:36:30.179Z,20.23
2019-04-04T12:38:58.875Z,20.13
2019-04-04T12:41:28.371Z,20.11
2019-04-04T12:43:57.131Z,19.86
2019-04-04T12:46:25.832Z,19.49
2019-04-04T12:48:54.984Z,19.50
2019-04-04T12:51:23.811Z,19.68
2019-04-04T12:53:52.490Z,19.62
2019-04-04T12:56:21.148Z,19.59
2019-04-04T12:58:49.884Z,19.21
2019-04-04T13:01:21.170Z,19.30
2019-04-04T13:03:49.062Z,19.89
2019-04-04T13:06:17.737Z,20.45
2019-04-04T13:08:46.461Z,20.45
2019-04-04T13:11:15.532Z,20.54
2019-04-04T13:13:44.194Z,20.19
2019-04-04T13:16:13.214Z,19.78
2019-04-04T13:18:41.902Z,19.84
2019-04-04T13:21:10.640Z,19.84
2019-04-04T13:23:39.444Z,19.75
2019-04-04T13:26:08.136Z,21.15
2019-04-04T13:28:36.797Z,21.70
2019-04-04T13:31:05.576Z,22.51
2019-04-04T13:33:34.415Z,24.04
2019-04-04T13:36:03.147Z,23.26
2019-04-04T13:38:31.850Z,22.56
2019-04-04T13:41:00.549Z,22.35
2019-04-04T13:43:29.430Z,22.46
2019-04-04T13:45:58.120Z,24.48
2019-04-04T13:48:26.861Z,24.61
2019-04-04T13:50:55.621Z,24.12
2019-04-04T13:53:25.598Z,24.42
2019-04-04T13:55:58.082Z,23.28
2019-04-04T13:58:25.321Z,21.75
2019-04-04T14:00:54.034Z,21.63
2019-04-04T14:03:22.838Z,22.69
2019-04-04T14:05:51.560Z,24.17
2019-04-04T14:08:20.271Z,25.18
2019-04-04T14:10:58.115Z,25.56
2019-04-04T14:13:19.356Z,25.76
2019-04-04T14:15:48.098Z,26.24
2019-04-04T14:18:22.450Z,25.89
2019-04-04T14:21:02.888Z,25.30
2019-04-04T14:23:24.010Z,24.75
2019-04-04T14:25:52.854Z,23.88
2019-04-04T14:28:21.835Z,24.54
2019-04-04T14:30:50.699Z,25.13
2019-04-04T14:33:19.509Z,25.24
2019-04-04T14:35:48.343Z,25.23
2019-04-04T14:38:17.041Z,25.12
2019-04-04T14:40:45.737Z,24.40
2019-04-04T14:43:14.579Z,24.32
2019-04-04T14:45:43.229Z,24.25
2019-04-04T14:48:11.984Z,23.45
2019-04-04T14:50:40.707Z,23.08
2019-04-04T14:53:09.378Z,23.56
2019-04-04T14:55:38.173Z,23.76
2019-04-04T14:58:06.853Z,23.35
2019-04-04T15:00:35.598Z,22.66
2019-04-04T15:03:04.389Z,21.21
2019-04-04T15:05:33.087Z,20.10
2019-04-04T15:08:01.781Z,19.50
2019-04-04T15:10:30.469Z,20.62
2019-04-04T15:12:59.133Z,20.62
2019-04-04T15:15:27.904Z,20.78
2019-04-04T15:17:56.584Z,21.16
2019-04-04T15:20:25.422Z,20.54
2019-04-04T15:22:54.139Z,20.63
2019-04-04T15:25:22.819Z,20.39
2019-04-04T15:27:51.503Z,19.58
2019-04-04T15:30:20.299Z,18.22
2019-04-04T15:32:48.985Z,17.28
2019-04-04T15:35:17.658Z,16.83
2019-04-04T15:37:46.329Z,16.43
2019-04-04T15:40:15.025Z,15.82
2019-04-04T15:42:43.912Z,15.75
2019-04-04T15:45:12.698Z,15.39
2019-04-04T15:47:41.384Z,15.18
2019-04-04T15:50:10.175Z,15.01
2019-04-04T15:52:38.874Z,14.90
2019-04-04T15:55:07.664Z,14.74
2019-04-04T15:57:36.375Z,14.60
2019-04-04T16:00:10.648Z,14.56
2019-04-04T16:02:39.333Z,14.46
2019-04-04T16:05:08.450Z,14.26
2019-04-04T16:07:37.272Z,14.20
2019-04-04T16:10:07.345Z,14.16
2019-04-04T16:12:36.025Z,14.11
2019-04-04T16:15:06.951Z,14.00
2019-04-04T16:17:35.653Z,13.90
2019-04-04T16:20:06.873Z,13.81
2019-04-04T16:22:35.563Z,13.68
2019-04-04T16:25:05.347Z,13.57
2019-04-04T16:27:34.067Z,13.45
2019-04-04T16:30:02.875Z,13.35
2019-04-04T16:32:31.763Z,13.26
2019-04-04T16:35:00.522Z,13.14
2019-04-04T16:37:29.275Z,13.08
2019-04-04T16:40:08.218Z,12.93
2019-04-04T16:42:28.523Z,12.84
2019-04-04T16:44:57.309Z,12.74
2019-04-04T16:47:26.122Z,12.69
2019-04-04T16:49:54.829Z,12.57
2019-04-04T16:52:23.683Z,12.44
2019-04-04T16:54:53.803Z,12.35
2019-04-04T16:57:22.636Z,12.28
2019-04-04T16:59:51.450Z,12.18
2019-04-04T17:02:20.246Z,12.14
2019-04-04T17:04:49.396Z,12.04
2019-04-04T17:07:18.066Z,11.89
2019-04-04T17:09:46.758Z,11.80
2019-04-04T17:12:15.523Z,11.77
2019-04-04T17:14:44.199Z,11.69
2019-04-04T17:17:12.956Z,11.66
2019-04-04T17:19:41.684Z,11.64
2019-04-04T17:22:10.360Z,11.59
2019-04-04T17:24:39.052Z,11.49
2019-04-04T17:27:07.735Z,11.37
2019-04-04T17:29:36.405Z,11.40
2019-04-04T17:32:05.251Z,11.35
2019-04-04T17:34:34.117Z,11.26
2019-04-04T17:37:02.801Z,11.18
2019-04-04T17:39:31.516Z,10.96
2019-04-04T17:42:00.148Z,11.05
2019-04-04T17:44:28.838Z,10.97
2019-04-04T17:46:57.719Z,10.94
2019-04-04T17:49:26.395Z,10.95
2019-04-04T17:51:55.137Z,10.86
2019-04-04T17:54:23.815Z,10.77
2019-04-04T17:56:59.382Z,10.77
2019-04-04T17:59:30.327Z,10.63
2019-04-04T18:01:59.411Z,10.56
2019-04-04T18:04:28.085Z,10.50
2019-04-04T18:06:56.775Z,10.40
2019-04-04T18:09:31.791Z,10.34
2019-04-04T18:11:55.864Z,10.39
2019-04-04T18:14:24.556Z,10.42
2019-04-04T18:16:53.348Z,10.43
2019-04-04T18:19:22.947Z,10.36
2019-04-04T18:21:51.617Z,9.90
2019-04-04T18:24:20.298Z,10.26
2019-04-04T18:26:48.990Z,10.18
2019-04-04T18:29:17.680Z,10.14
2019-04-04T18:31:46.366Z,10.06
2019-04-04T18:34:15.503Z,10.07
2019-04-04T18:36:44.133Z,10.05
2019-04-04T18:39:12.921Z,10.01
2019-04-04T18:41:41.691Z,10.08
2019-04-04T18:44:10.370Z,10.04
2019-04-04T18:46:39.064Z,9.96
2019-04-04T18:49:07.742Z,9.93
2019-04-04T18:51:37.612Z,9.94
2019-04-04T18:54:05.579Z,9.94
2019-04-04T18:56:34.262Z,9.92
2019-04-04T18:59:03.369Z,9.85
2019-04-04T19:01:32.035Z,9.85
2019-04-04T19:04:00.726Z,9.85
2019-04-04T19:06:29.403Z,9.84
2019-04-04T19:08:58.093Z,9.82
2019-04-04T19:11:26.845Z,9.84
2019-04-04T19:13:55.521Z,9.83
2019-04-04T19:16:24.353Z,9.84
2019-04-04T19:18:53.087Z,9.83
2019-04-04T19:21:21.802Z,9.79
2019-04-04T19:23:50.556Z,9.77
2019-04-04T19:26:19.283Z,9.68
2019-04-04T19:28:47.994Z,9.63
2019-04-04T19:31:16.719Z,9.59
2019-04-04T19:33:45.395Z,9.48
2019-04-04T19:36:14.116Z,9.47
2019-04-04T19:38:42.836Z,9.35
2019-04-04T19:41:11.560Z,9.27
2019-04-04T19:43:40.304Z,9.22
2019-04-04T19:46:09.132Z,9.19
2019-04-04T19:48:37.846Z,9.16
2019-04-04T19:51:06.571Z,9.23
2019-04-04T19:53:35.280Z,9.13
2019-04-04T19:56:04.367Z,9.09
2019-04-04T19:58:33.178Z,9.09
2019-04-04T20:01:02.301Z,9.02
2019-04-04T20:03:31.023Z,9.05
2019-04-04T20:05:59.749Z,9.05
2019-04-04T20:08:28.608Z,9.06
2019-04-04T20:10:57.288Z,9.08
2019-04-04T20:13:31.071Z,9.06
2019-04-04T20:15:56.395Z,9.07
2019-04-04T20:18:25.061Z,9.06
2019-04-04T20:20:53.741Z,9.00
2019-04-04T20:23:22.428Z,8.97
2019-04-04T20:25:51.129Z,8.16
2019-04-04T20:28:19.840Z,8.91
2019-04-04T20:30:48.634Z,8.91
2019-04-04T20:33:17.396Z,8.96
2019-04-04T20:35:46.183Z,8.90
2019-04-04T20:38:14.924Z,8.88
2019-04-04T20:40:43.641Z,8.88
2019-04-04T20:43:12.347Z,8.89
2019-04-04T20:45:41.070Z,8.86
2019-04-04T20:48:09.784Z,8.97
2019-04-04T20:50:38.549Z,8.95
2019-04-04T20:53:07.233Z,8.98
2019-04-04T20:55:35.950Z,8.98
2019-04-04T20:58:04.871Z,8.97
2019-04-04T21:00:33.541Z,8.93
2019-04-04T21:03:02.202Z,8.85
2019-04-04T21:05:30.879Z,8.77
2019-04-04T21:07:59.550Z,8.74
2019-04-04T21:10:28.222Z,8.66
2019-04-04T21:12:56.881Z,8.64
2019-04-04T21:15:25.600Z,8.64
2019-04-04T21:17:54.262Z,8.62
2019-04-04T21:20:23.287Z,8.63
2019-04-04T21:22:51.973Z,8.61
2019-04-04T21:25:20.641Z,8.65
2019-04-04T21:27:49.331Z,8.67
2019-04-04T21:30:18.034Z,8.65
2019-04-04T21:32:46.709Z,8.72
2019-04-04T21:35:15.386Z,8.67
2019-04-04T21:37:44.054Z,8.64
2019-04-04T21:40:12.740Z,8.68
2019-04-04T21:42:41.499Z,8.59
2019-04-04T21:45:10.395Z,8.56
2019-04-04T21:47:39.095Z,8.57
2019-04-04T21:50:08.287Z,8.53
2019-04-04T21:52:37.600Z,8.61
2019-04-04T21:55:07.228Z,8.65
2019-04-04T21:57:35.999Z,8.66
2019-04-04T22:00:07.320Z,8.64
2019-04-04T22:02:36.040Z,8.58
2019-04-04T22:05:08.740Z,8.53
2019-04-04T22:07:37.433Z,8.51
2019-04-04T22:10:08.007Z,8.48
2019-04-04T22:12:36.752Z,8.47
2019-04-04T22:15:07.921Z,8.51
2019-04-04T22:17:36.615Z,8.56
2019-04-04T22:20:06.608Z,8.49
2019-04-04T22:22:35.317Z,8.38
2019-04-04T22:25:05.421Z,8.38
2019-04-04T22:27:34.087Z,8.38
2019-04-04T22:30:02.759Z,8.40
2019-04-04T22:32:31.438Z,8.34
2019-04-04T22:35:00.104Z,8.31
2019-04-04T22:37:28.765Z,8.28
2019-04-04T22:39:57.453Z,8.15
2019-04-04T22:42:26.105Z,8.16
2019-04-04T22:44:54.830Z,8.18
2019-04-04T22:47:23.508Z,8.19
2019-04-04T22:49:52.294Z,8.26
2019-04-04T22:52:20.961Z,8.29
2019-04-04T22:54:49.633Z,8.19
2019-04-04T22:57:18.313Z,8.10
2019-04-04T22:59:46.978Z,8.06
2019-04-04T23:02:15.659Z,8.03
2019-04-04T23:04:44.358Z,7.84
2019-04-04T23:07:13.002Z,7.99
2019-04-04T23:09:41.685Z,7.94
2019-04-04T23:12:10.379Z,7.94
2019-04-04T23:14:47.986Z,7.93
2019-04-04T23:17:09.452Z,7.91
2019-04-04T23:19:38.139Z,7.86
2019-04-04T23:22:06.806Z,7.84
2019-04-04T23:24:35.485Z,7.78
2019-04-04T23:27:04.175Z,7.74
2019-04-04T23:29:32.855Z,7.72
2019-04-04T23:32:01.533Z,7.72
2019-04-04T23:34:30.212Z,7.39
2019-04-04T23:36:58.879Z,7.69
2019-04-04T23:39:27.569Z,7.68
2019-04-04T23:41:56.247Z,7.63
2019-04-04T23:44:24.934Z,7.61
2019-04-04T23:46:53.608Z,7.59
2019-04-04T23:49:22.276Z,7.55
2019-04-04T23:51:50.955Z,7.48
2019-04-04T23:54:19.647Z,7.41
2019-04-04T23:56:48.331Z,7.38
2019-04-04T23:59:17.003Z,7.38
